Terminal Aerodrome Forecast
Issued by NWS Wilmington, OH

Current Version | Previous Version | Text Only | Print | Product List | Glossary Off
Versions: 1 2 3 4 5 6 7 8 9 10 11 12 13 14 15 16 17 18 19 20

000
FTUS41 KILN 182300
TAFILN
TAF
KILN 182331Z 1900/1924 01005KT P6SM SCT035 BKN090
     FM190200 VRB03KT 4SM BR BKN250
     FM190900 00000KT 1SM BR FEW001 BKN250
     FM191200 VRB03KT 2SM BR BKN250
     FM191400 23005KT P6SM BKN250
     FM191600 23008KT P6SM BKN050=

USA.gov is the U.S. government's official web portal to all federal, state and local government web resources and services.